Time;durP1;ratioP1;P1;durP2;ratioP2;P2;SDS_P1;SDS_P2;PMS_P1;PMS_P2;Temp;Humidity;BMP_temperature;BMP_pressure;BME280_temperature;BME280_humidity;BME280_pressure;Samples;Min_cycle;Max_cycle;Signal;HPM_P1;HPM_P2
2021/04/30 00:02:06;;;;;;;6.70;4.40;;;7.10;83.70;;;;;;5027456;28;20529;-83
2021/04/30 00:04:32;;;;;;;6.15;4.15;;;7.10;83.90;;;;;;5028944;28;20025;-83
2021/04/30 00:06:58;;;;;;;9.07;4.70;;;7.00;84.10;;;;;;5011352;28;20025;-83
2021/04/30 00:09:23;;;;;;;9.70;4.40;;;6.90;84.20;;;;;;5027471;28;20033;-83
2021/04/30 00:11:49;;;;;;;7.38;4.20;;;6.90;84.40;;;;;;5028718;28;20029;-83
2021/04/30 00:14:16;;;;;;;9.05;4.60;;;6.90;84.60;;;;;;5011102;28;20038;-84
2021/04/30 00:16:43;;;;;;;8.27;4.30;;;6.90;84.80;;;;;;5011217;28;20035;-84
2021/04/30 00:19:08;;;;;;;8.85;4.22;;;6.80;84.90;;;;;;5027086;28;20497;-84
2021/04/30 00:21:36;;;;;;;6.20;3.58;;;6.80;85.00;;;;;;4994489;28;20079;-83
2021/04/30 00:24:03;;;;;;;8.52;4.75;;;6.80;85.20;;;;;;5011024;28;20037;-83
2021/04/30 00:26:29;;;;;;;8.73;4.38;;;6.80;85.20;;;;;;5010577;28;20263;-83
2021/04/30 00:28:55;;;;;;;8.85;4.85;;;6.70;85.30;;;;;;5027134;28;20079;-84
2021/04/30 00:31:21;;;;;;;9.10;4.22;;;6.70;85.50;;;;;;4994444;28;20048;-83
2021/04/30 00:33:47;;;;;;;9.43;4.65;;;6.70;85.70;;;;;;5027380;28;20467;-84
2021/04/30 00:36:13;;;;;;;10.68;4.68;;;6.70;85.90;;;;;;5028294;28;20025;-84
2021/04/30 00:38:38;;;;;;;8.63;4.68;;;6.70;86.10;;;;;;5010383;28;20495;-83
2021/04/30 00:41:04;;;;;;;10.43;5.20;;;6.60;86.60;;;;;;4994214;28;20025;-84
2021/04/30 00:43:30;;;;;;;14.30;5.20;;;6.60;86.40;;;;;;5028149;28;20059;-84
2021/04/30 00:45:55;;;;;;;4.35;3.30;;;6.60;86.70;;;;;;4993945;28;20061;-84
2021/04/30 00:48:21;;;;;;;6.63;3.78;;;6.60;86.80;;;;;;5026924;28;20029;-83
2021/04/30 00:50:48;;;;;;;7.53;4.72;;;6.50;86.90;;;;;;5010360;28;20124;-84
2021/04/30 00:53:14;;;;;;;7.40;4.60;;;6.50;87.00;;;;;;4994278;28;20060;-83
2021/04/30 00:55:39;;;;;;;11.02;4.93;;;6.50;87.10;;;;;;5010284;28;20492;-83
2021/04/30 00:58:05;;;;;;;9.18;4.93;;;6.40;87.20;;;;;;5026951;28;20496;-83
2021/04/30 01:00:34;;;;;;;11.68;4.68;;;6.50;87.30;;;;;;5010331;28;20055;-83
2021/04/30 01:03:00;;;;;;;7.82;4.13;;;6.40;87.30;;;;;;5026366;28;20040;-83
2021/04/30 01:05:26;;;;;;;5.47;4.25;;;6.40;87.30;;;;;;5026650;28;20021;-84
2021/04/30 01:07:52;;;;;;;5.88;4.00;;;6.30;87.40;;;;;;5026699;28;20109;-84
2021/04/30 01:10:19;;;;;;;7.22;4.45;;;6.30;87.60;;;;;;5010363;28;20033;-84
2021/04/30 01:12:46;;;;;;;8.20;5.18;;;6.30;87.70;;;;;;5026568;28;20451;-84
2021/04/30 01:15:13;;;;;;;9.55;5.72;;;6.20;87.80;;;;;;5010305;28;20403;-83
2021/04/30 01:17:39;;;;;;;8.80;5.95;;;6.20;88.20;;;;;;5026431;28;20034;-83
2021/04/30 01:20:06;;;;;;;7.47;5.28;;;6.20;88.30;;;;;;5010414;28;20492;-84
2021/04/30 01:22:43;;;;;;;9.00;5.93;;;6.20;88.60;;;;;;5026441;28;20533;-84
2021/04/30 01:25:12;;;;;;;11.02;5.13;;;6.20;88.80;;;;;;5026583;28;20029;-83
2021/04/30 01:27:39;;;;;;;10.57;5.00;;;6.20;88.80;;;;;;5026536;28;20116;-83
2021/04/30 01:30:07;;;;;;;5.57;4.28;;;6.20;88.90;;;;;;5026182;28;20021;-84
2021/04/30 01:32:33;;;;;;;9.88;4.55;;;6.20;88.90;;;;;;5026380;28;20033;-84
2021/04/30 01:34:59;;;;;;;9.52;6.00;;;6.20;88.90;;;;;;5026297;28;20041;-84
2021/04/30 01:37:25;;;;;;;7.10;4.93;;;6.10;88.80;;;;;;5009558;28;20026;-84
2021/04/30 01:39:52;;;;;;;8.60;5.43;;;6.10;89.00;;;;;;5026296;28;20026;-84
2021/04/30 01:42:18;;;;;;;14.27;5.78;;;6.10;89.00;;;;;;5026369;28;20022;-84
2021/04/30 01:44:44;;;;;;;10.32;5.93;;;6.10;89.00;;;;;;5026210;28;20064;-84
2021/04/30 01:47:09;;;;;;;7.25;5.07;;;6.00;89.10;;;;;;5009793;28;20175;-84
2021/04/30 01:49:35;;;;;;;7.00;4.95;;;6.00;89.20;;;;;;5026125;28;20061;-82
2021/04/30 01:52:01;;;;;;;6.78;4.80;;;6.00;89.30;;;;;;5026164;28;20036;-84
2021/04/30 01:54:26;;;;;;;11.98;5.45;;;6.00;89.50;;;;;;5026097;28;20400;-84
2021/04/30 01:56:52;;;;;;;8.80;5.30;;;6.00;89.60;;;;;;5009785;28;20113;-85
2021/04/30 01:59:18;;;;;;;7.65;5.15;;;6.00;89.60;;;;;;5026098;28;20033;-83
2021/04/30 02:01:44;;;;;;;7.32;4.93;;;5.90;89.60;;;;;;5026199;28;20025;-83
2021/04/30 02:04:11;;;;;;;9.80;5.35;;;5.90;89.70;;;;;;5009528;28;20033;-83
2021/04/30 02:06:41;;;;;;;6.63;4.70;;;5.90;89.70;;;;;;5026028;28;20045;-84
2021/04/30 02:09:08;;;;;;;;;;;5.90;89.90;;;;;;5026492;28;20036;-84
2021/04/30 02:11:35;;;;;;;9.60;5.70;;;5.80;89.40;;;;;;5026003;28;19911;-84
2021/04/30 02:14:02;;;;;;;7.38;5.07;;;5.80;89.10;;;;;;5011257;28;20032;-83
2021/04/30 02:16:28;;;;;;;7.53;5.53;;;5.80;89.40;;;;;;5029760;28;20034;-84
2021/04/30 02:18:54;;;;;;;7.25;5.07;;;5.70;89.50;;;;;;5029140;28;20040;-84
2021/04/30 02:21:20;;;;;;;6.00;4.97;;;5.70;89.60;;;;;;4996773;28;20116;-84
2021/04/30 02:23:45;;;;;;;8.07;5.20;;;5.70;89.70;;;;;;5013026;28;20050;-84
2021/04/30 02:26:11;;;;;;;7.40;5.13;;;5.70;89.80;;;;;;5012888;28;20034;-84
2021/04/30 02:28:37;;;;;;;8.40;5.63;;;5.70;89.90;;;;;;4996651;28;20040;-82
2021/04/30 02:31:03;;;;;;;7.40;4.85;;;5.60;90.00;;;;;;5029361;28;20094;-84
2021/04/30 02:33:29;;;;;;;10.55;5.13;;;5.60;90.00;;;;;;5013021;28;20044;-84
2021/04/30 02:35:54;;;;;;;6.22;4.75;;;5.60;90.00;;;;;;5029345;28;20029;-83
2021/04/30 02:38:20;;;;;;;6.68;4.75;;;5.60;90.00;;;;;;5012861;28;20084;-83
2021/04/30 02:40:48;;;;;;;9.75;5.63;;;5.50;90.00;;;;;;5012729;28;20503;-82
2021/04/30 02:43:17;;;;;;;10.80;4.75;;;5.50;90.00;;;;;;5012521;28;20029;-83
2021/04/30 02:45:43;;;;;;;7.45;4.72;;;5.40;90.00;;;;;;5030159;28;20026;-84
2021/04/30 02:48:15;;;;;;;8.88;5.00;;;5.40;90.00;;;;;;4996225;28;20424;-84
2021/04/30 02:50:41;;;;;;;6.15;4.68;;;5.40;90.10;;;;;;5029077;28;20071;-84
2021/04/30 02:53:07;;;;;;;6.47;4.65;;;5.40;90.20;;;;;;5012739;28;20127;-83
2021/04/30 02:55:33;;;;;;;8.57;5.78;;;5.40;90.20;;;;;;5030304;28;20117;-84
2021/04/30 02:58:01;;;;;;;8.57;5.70;;;5.40;90.20;;;;;;5028812;28;20030;-83
2021/04/30 03:00:29;;;;;;;7.68;5.47;;;5.30;90.20;;;;;;5028739;28;20033;-84
2021/04/30 03:02:56;;;;;;;6.30;5.00;;;5.30;90.20;;;;;;5028711;28;20076;-83
2021/04/30 03:05:22;;;;;;;8.18;5.40;;;5.20;90.20;;;;;;5028519;28;20028;-84
2021/04/30 03:07:48;;;;;;;9.63;5.90;;;5.20;90.20;;;;;;5012147;28;20037;-84
2021/04/30 03:10:15;;;;;;;8.60;5.63;;;5.20;90.20;;;;;;5012064;28;20082;-84
2021/04/30 03:12:41;;;;;;;8.48;5.28;;;5.20;90.30;;;;;;4995949;28;20030;-83
2021/04/30 03:15:08;;;;;;;10.68;5.28;;;5.20;90.40;;;;;;5028249;28;20079;-84
2021/04/30 03:17:34;;;;;;;8.00;5.10;;;5.20;90.40;;;;;;5029820;28;20397;-83
2021/04/30 03:19:59;;;;;;;7.65;5.50;;;5.10;90.30;;;;;;5028526;28;20220;-83
2021/04/30 03:22:25;;;;;;;8.65;5.60;;;5.20;90.40;;;;;;5029763;28;20140;-84
2021/04/30 03:24:51;;;;;;;6.68;4.57;;;5.10;90.40;;;;;;4995262;28;20487;-84
2021/04/30 03:27:17;;;;;;;6.55;4.50;;;5.10;90.40;;;;;;4995522;28;20035;-83
2021/04/30 03:29:42;;;;;;;9.35;5.93;;;5.10;90.40;;;;;;5028294;28;20030;-84
2021/04/30 03:32:08;;;;;;;7.43;5.35;;;5.10;90.30;;;;;;5028186;28;20056;-83
2021/04/30 03:34:37;;;;;;;7.15;4.95;;;5.00;90.30;;;;;;5028239;28;20394;-84
2021/04/30 03:37:04;;;;;;;7.70;5.35;;;5.00;90.40;;;;;;5028058;28;20033;-84
2021/04/30 03:39:30;;;;;;;6.88;5.03;;;5.00;90.40;;;;;;5011364;28;20033;-84
2021/04/30 03:41:56;;;;;;;11.10;6.05;;;5.00;90.40;;;;;;5011713;28;20439;-84
2021/04/30 03:44:22;;;;;;;8.70;4.88;;;4.90;90.40;;;;;;5027909;28;20113;-84
2021/04/30 03:46:47;;;;;;;8.50;5.70;;;4.90;90.40;;;;;;5011204;28;20460;-84
2021/04/30 03:49:13;;;;;;;10.52;5.85;;;4.80;90.40;;;;;;5027895;28;20117;-84
2021/04/30 03:51:39;;;;;;;7.22;5.32;;;4.80;90.50;;;;;;5011406;28;20038;-84
2021/04/30 03:54:05;;;;;;;9.60;5.50;;;4.70;90.50;;;;;;5011267;28;20041;-84
2021/04/30 03:56:30;;;;;;;8.65;5.43;;;4.70;90.50;;;;;;5011137;28;20029;-83
2021/04/30 03:58:56;;;;;;;8.82;5.55;;;4.70;90.60;;;;;;5011240;28;20025;-84
2021/04/30 04:01:22;;;;;;;10.85;5.40;;;4.70;90.60;;;;;;5011135;28;20476;-84
2021/04/30 04:03:48;;;;;;;7.22;5.60;;;4.70;90.50;;;;;;5011124;28;20056;-85
2021/04/30 04:06:14;;;;;;;8.60;4.70;;;4.70;90.60;;;;;;5027377;28;20096;-84
2021/04/30 04:08:39;;;;;;;10.80;5.45;;;4.80;90.60;;;;;;5027430;28;20091;-84
2021/04/30 04:11:05;;;;;;;8.82;5.50;;;4.70;90.50;;;;;;5010906;28;20100;-84
2021/04/30 04:13:31;;;;;;;8.65;4.95;;;4.70;90.50;;;;;;5011100;28;20044;-84
2021/04/30 04:16:02;;;;;;;11.77;7.70;;;4.70;90.50;;;;;;5028562;28;20476;-84
2021/04/30 04:18:27;;;;;;;10.75;8.40;;;4.70;90.60;;;;;;5011800;28;20052;-84
2021/04/30 04:20:53;;;;;;;8.98;5.93;;;4.70;90.60;;;;;;4994391;28;20496;-83
2021/04/30 04:23:19;;;;;;;9.63;5.00;;;4.70;90.50;;;;;;5028740;28;20542;-83
2021/04/30 04:25:45;;;;;;;8.32;5.07;;;4.70;90.60;;;;;;4994201;28;20025;-82
2021/04/30 04:28:10;;;;;;;8.88;5.97;;;4.70;90.50;;;;;;5026925;28;20115;-82
2021/04/30 04:30:36;;;;;;;7.50;5.45;;;4.60;90.50;;;;;;5027206;28;20392;-83
2021/04/30 04:33:03;;;;;;;8.50;5.70;;;4.60;90.60;;;;;;5010503;28;20038;-82
2021/04/30 04:35:29;;;;;;;7.18;5.85;;;4.60;90.60;;;;;;5027018;28;20026;-82
2021/04/30 04:37:54;;;;;;;12.75;5.65;;;4.60;90.60;;;;;;5026518;28;20029;-82
2021/04/30 04:40:20;;;;;;;8.73;5.95;;;4.60;90.60;;;;;;5026636;28;20488;-82
2021/04/30 04:42:47;;;;;;;10.02;5.63;;;4.50;90.60;;;;;;5026816;28;20025;-81
2021/04/30 04:45:14;;;;;;;9.32;5.57;;;4.60;90.80;;;;;;5026743;28;20040;-81
2021/04/30 04:47:41;;;;;;;11.35;6.72;;;4.60;90.70;;;;;;5010278;28;20060;-82
2021/04/30 04:50:09;;;;;;;11.35;5.75;;;4.60;90.70;;;;;;5026504;28;20025;-81
2021/04/30 04:52:35;;;;;;;10.52;5.68;;;4.60;90.70;;;;;;5028393;28;20487;-81
2021/04/30 04:55:01;;;;;;;8.88;4.68;;;4.60;90.60;;;;;;5026869;28;20041;-81
2021/04/30 04:57:26;;;;;;;8.48;5.43;;;4.60;90.60;;;;;;5010374;28;20498;-81
2021/04/30 04:59:52;;;;;;;8.15;5.40;;;4.50;90.60;;;;;;4993970;28;20029;-81
2021/04/30 05:02:18;;;;;;;7.32;5.32;;;4.50;90.60;;;;;;5010878;28;20030;-81
2021/04/30 05:04:45;;;;;;;13.00;5.88;;;4.50;90.70;;;;;;5010110;28;20026;-82
2021/04/30 05:07:11;;;;;;;19.58;8.27;;;4.50;90.90;;;;;;5027802;28;20065;-83
2021/04/30 05:09:37;;;;;;;14.88;7.65;;;4.50;90.90;;;;;;5026373;28;20109;-82
2021/04/30 05:12:02;;;;;;;13.85;7.80;;;4.60;90.90;;;;;;4993700;28;20471;-82
2021/04/30 05:14:28;;;;;;;11.38;6.63;;;4.60;90.80;;;;;;5010359;28;20038;-83
2021/04/30 05:16:54;;;;;;;7.40;5.28;;;4.60;90.80;;;;;;5010292;28;20037;-83
2021/04/30 05:19:19;;;;;;;10.40;6.53;;;4.60;90.90;;;;;;5010406;28;20423;-83
2021/04/30 05:21:47;;;;;;;9.95;6.20;;;4.70;90.80;;;;;;4993785;28;20044;-84
2021/04/30 05:24:14;;;;;;;13.70;6.53;;;4.70;90.70;;;;;;5026344;28;20056;-84
2021/04/30 05:26:40;;;;;;;11.85;5.90;;;4.80;90.70;;;;;;5009946;28;20036;-84
2021/04/30 05:29:06;;;;;;;8.38;5.80;;;4.80;90.60;;;;;;5026584;28;20370;-83
2021/04/30 05:31:34;;;;;;;8.73;5.45;;;4.90;90.60;;;;;;5027855;28;20098;-84
2021/04/30 05:34:00;;;;;;;15.55;5.72;;;4.90;90.60;;;;;;5027857;28;20083;-83
2021/04/30 05:36:26;;;;;;;8.77;5.50;;;5.00;90.50;;;;;;5010160;28;20029;-84
2021/04/30 05:38:52;;;;;;;10.10;4.78;;;5.00;90.50;;;;;;4993573;28;20036;-84
2021/04/30 05:41:18;;;;;;;20.83;5.63;;;5.00;90.60;;;;;;5010040;28;20405;-84
2021/04/30 05:43:44;;;;;;;11.10;5.30;;;5.10;90.70;;;;;;5026451;28;20026;-84
2021/04/30 05:46:09;;;;;;;8.55;5.15;;;5.10;90.60;;;;;;5009538;28;20107;-84
2021/04/30 05:48:35;;;;;;;11.68;6.18;;;5.20;90.60;;;;;;5028709;28;20036;-83
2021/04/30 05:51:01;;;;;;;10.88;5.50;;;5.30;90.60;;;;;;5030422;28;20464;-83
2021/04/30 05:53:27;;;;;;;13.93;5.95;;;5.40;90.70;;;;;;5029852;28;20060;-83
2021/04/30 05:55:53;;;;;;;8.10;5.82;;;5.50;90.70;;;;;;5029741;28;20404;-84
2021/04/30 05:58:19;;;;;;;12.48;5.85;;;5.60;90.70;;;;;;5029468;28;20037;-84
2021/04/30 06:00:45;;;;;;;12.65;5.88;;;5.70;90.70;;;;;;5029960;28;20053;-83
2021/04/30 06:03:11;;;;;;;17.02;6.43;;;5.90;90.60;;;;;;5029888;28;20491;-83
2021/04/30 06:05:36;;;;;;;12.00;6.25;;;6.00;90.40;;;;;;4996691;28;20079;-82
2021/04/30 06:08:02;;;;;;;8.95;6.28;;;6.20;90.40;;;;;;5013250;28;20037;-83
2021/04/30 06:10:28;;;;;;;10.38;6.03;;;6.30;90.20;;;;;;4996799;28;20034;-83
2021/04/30 06:12:54;;;;;;;7.53;5.63;;;6.40;90.10;;;;;;5030416;28;20586;-82
2021/04/30 06:15:20;;;;;;;20.30;7.63;;;6.50;90.10;;;;;;5030219;28;20037;-84
2021/04/30 06:17:46;;;;;;;10.98;6.53;;;6.60;90.00;;;;;;5029636;28;20053;-83
2021/04/30 06:20:12;;;;;;;7.05;5.50;;;6.70;89.90;;;;;;5031113;28;20522;-83
2021/04/30 06:22:38;;;;;;;11.13;5.38;;;6.80;89.90;;;;;;5013099;28;20021;-84
2021/04/30 06:25:05;;;;;;;11.52;5.35;;;7.20;90.30;;;;;;5013269;28;20361;-83
2021/04/30 06:27:31;;;;;;;10.95;5.20;;;7.80;89.20;;;;;;5031134;28;20026;-82
2021/04/30 06:29:56;;;;;;;10.05;5.03;;;8.20;86.60;;;;;;5013104;28;20453;-82
2021/04/30 06:32:23;;;;;;;14.40;5.78;;;8.20;85.30;;;;;;5013291;28;20037;-83
2021/04/30 06:34:49;;;;;;;11.68;5.88;;;8.00;85.20;;;;;;5013125;28;20087;-83
2021/04/30 06:37:16;;;;;;;8.45;5.45;;;7.80;85.30;;;;;;5012731;28;20061;-84
2021/04/30 06:39:42;;;;;;;9.88;5.78;;;7.70;85.50;;;;;;5013537;28;20455;-83
2021/04/30 06:42:08;;;;;;;9.55;4.85;;;7.60;85.80;;;;;;4997244;28;20116;-83
2021/04/30 06:44:34;;;;;;;14.05;5.60;;;7.50;86.00;;;;;;4996686;28;20030;-84
2021/04/30 06:47:00;;;;;;;8.48;5.15;;;7.40;86.00;;;;;;5028690;28;20492;-83
2021/04/30 06:49:26;;;;;;;8.23;4.82;;;7.30;86.10;;;;;;5012409;28;20033;-82
2021/04/30 06:51:52;;;;;;;8.90;4.45;;;7.30;86.30;;;;;;5028440;28;20044;-83
2021/04/30 06:54:18;;;;;;;7.65;4.50;;;7.30;86.20;;;;;;5028908;28;20034;-82
2021/04/30 06:56:44;;;;;;;8.05;4.82;;;7.20;86.20;;;;;;5028234;28;20033;-83
2021/04/30 06:59:10;;;;;;;12.95;6.10;;;7.10;85.70;;;;;;5027864;28;20032;-83
2021/04/30 07:01:36;;;;;;;19.60;7.95;;;7.10;85.60;;;;;;5029878;28;20021;-84
2021/04/30 07:04:02;;;;;;;12.45;6.70;;;7.10;85.70;;;;;;5011676;28;20568;-83
2021/04/30 07:06:27;;;;;;;9.27;5.18;;;7.10;85.80;;;;;;5011720;28;20035;-84
2021/04/30 07:08:53;;;;;;;12.40;7.18;;;7.10;85.80;;;;;;4995158;28;20120;-84
2021/04/30 07:11:20;;;;;;;11.95;4.90;;;7.10;85.70;;;;;;5011733;28;20038;-84
2021/04/30 07:13:46;;;;;;;8.85;4.68;;;7.20;85.80;;;;;;5011989;28;20116;-84
2021/04/30 07:16:11;;;;;;;6.63;4.50;;;7.40;85.90;;;;;;5028396;28;20356;-83
2021/04/30 07:18:37;;;;;;;6.80;4.38;;;7.70;86.20;;;;;;5029139;28;20028;-84
2021/04/30 07:21:04;;;;;;;6.07;4.55;;;8.20;87.10;;;;;;5011792;28;20124;-83
2021/04/30 07:23:31;;;;;;;8.18;5.00;;;8.90;86.50;;;;;;5029276;28;20100;-84
2021/04/30 07:25:57;;;;;;;16.48;5.15;;;9.70;85.10;;;;;;5011732;28;20495;-84
2021/04/30 07:28:23;;;;;;;11.20;4.97;;;10.30;83.20;;;;;;4995303;28;20116;-83
2021/04/30 07:30:50;;;;;;;8.43;5.40;;;11.00;83.10;;;;;;5027976;28;20042;-84
2021/04/30 07:33:16;;;;;;;8.95;4.38;;;12.10;82.60;;;;;;5027681;28;20029;-84
2021/04/30 07:35:41;;;;;;;6.55;4.85;;;13.00;79.20;;;;;;5027368;28;20025;-83
2021/04/30 07:38:08;;;;;;;6.75;4.13;;;14.20;79.30;;;;;;5027234;28;20041;-84
2021/04/30 07:40:37;;;;;;;11.52;3.55;;;15.70;78.40;;;;;;5028875;28;20021;-84
2021/04/30 07:43:03;;;;;;;9.93;4.03;;;17.20;75.80;;;;;;5027271;28;20029;-84
2021/04/30 07:45:29;;;;;;;7.85;3.45;;;18.80;72.70;;;;;;5010876;28;20374;-85
2021/04/30 07:47:58;;;;;;;12.15;6.95;;;19.80;67.40;;;;;;5028150;28;20136;-85
2021/04/30 07:50:23;;;;;;;16.80;5.25;;;19.60;63.30;;;;;;5011349;28;20448;-84
2021/04/30 07:52:49;;;;;;;10.10;4.22;;;19.00;62.10;;;;;;5010501;28;20108;-85
2021/04/30 07:55:15;;;;;;;10.48;3.63;;;18.40;61.50;;;;;;4994435;28;20029;-85
2021/04/30 07:57:41;;;;;;;11.20;3.45;;;18.00;61.10;;;;;;5027078;28;20107;-83
2021/04/30 08:00:08;;;;;;;12.43;3.90;;;18.60;61.90;;;;;;4994269;28;20088;-83
2021/04/30 08:02:33;;;;;;;22.15;5.53;;;19.70;61.00;;;;;;5010648;28;20030;-83
2021/04/30 08:04:59;;;;;;;13.18;4.18;;;20.80;60.20;;;;;;5009460;28;20395;-82
2021/04/30 08:07:25;;;;;;;9.38;4.43;;;21.90;58.60;;;;;;5026783;28;20427;-83
2021/04/30 08:09:53;;;;;;;6.15;3.65;;;22.90;56.90;;;;;;5026690;28;20033;-84
2021/04/30 08:12:19;;;;;;;12.25;3.80;;;23.60;55.20;;;;;;4993746;28;20068;-84
2021/04/30 08:14:45;;;;;;;9.52;3.30;;;24.10;54.10;;;;;;5010240;28;20030;-84
2021/04/30 08:17:12;;;;;;;9.30;3.20;;;24.50;53.60;;;;;;5026925;28;20400;-80
2021/04/30 08:19:38;;;;;;;12.60;3.70;;;25.10;52.60;;;;;;5010316;28;20056;-82
2021/04/30 08:22:03;;;;;;;6.93;2.90;;;25.60;51.30;;;;;;5009989;28;20034;-84
2021/04/30 08:24:29;;;;;;;7.53;3.05;;;26.20;50.30;;;;;;5028213;28;20036;-84
2021/04/30 08:26:55;;;;;;;9.77;2.97;;;26.60;49.00;;;;;;5010078;28;20029;-84
2021/04/30 08:29:21;;;;;;;6.00;3.10;;;26.10;48.20;;;;;;5010012;28;20030;-84
2021/04/30 08:31:47;;;;;;;4.43;2.75;;;25.90;47.90;;;;;;5009965;28;20416;-85
2021/04/30 08:34:12;;;;;;;8.73;3.30;;;25.60;47.50;;;;;;5026281;28;20163;-84
2021/04/30 08:36:38;;;;;;;6.97;3.13;;;25.60;48.00;;;;;;4993461;28;20092;-84
2021/04/30 08:39:05;;;;;;;10.77;4.65;;;25.60;47.90;;;;;;4992702;28;20168;-84
2021/04/30 08:41:34;;;;;;;10.13;3.15;;;25.70;47.80;;;;;;5009209;28;20090;-85
2021/04/30 08:44:00;;;;;;;;;;;26.20;47.00;;;;;;5026785;28;20032;-86
2021/04/30 08:46:27;;;;;;;15.35;3.65;;;25.90;47.40;;;;;;5010056;28;19917;-85
2021/04/30 08:48:53;;;;;;;5.65;3.38;;;25.00;46.20;;;;;;5010016;28;20504;-84
2021/04/30 08:51:18;;;;;;;6.38;3.22;;;23.90;45.90;;;;;;5010754;28;20034;-86
2021/04/30 08:53:44;;;;;;;3.65;3.13;;;22.70;46.00;;;;;;5009919;28;20025;-84
2021/04/30 08:56:10;;;;;;;5.50;3.03;;;21.80;47.30;;;;;;5027341;28;20036;-83
2021/04/30 08:58:38;;;;;;;8.00;3.15;;;21.30;48.20;;;;;;5027798;28;20473;-85
2021/04/30 09:01:05;;;;;;;10.73;3.08;;;21.40;49.40;;;;;;5026063;28;20040;-85
2021/04/30 09:03:34;;;;;;;6.43;3.25;;;21.40;48.70;;;;;;5026157;28;20025;-85
2021/04/30 09:06:00;;;;;;;10.80;3.05;;;21.20;48.40;;;;;;5025937;28;20391;-85
2021/04/30 09:08:27;;;;;;;5.97;3.47;;;21.30;49.30;;;;;;5010394;28;20416;-86
2021/04/30 09:10:56;;;;;;;7.13;2.97;;;21.30;48.60;;;;;;5009859;28;20100;-86
2021/04/30 09:13:23;;;;;;;6.53;3.50;;;20.80;48.10;;;;;;5027408;28;20076;-84
2021/04/30 09:16:06;;;;;;;7.30;3.35;;;19.90;48.40;;;;;;5026263;28;20117;-84
2021/04/30 09:18:33;;;;;;;5.15;3.78;;;19.20;49.30;;;;;;5026661;28;20029;-84
2021/04/30 09:21:10;;;;;;;5.63;3.13;;;18.50;49.90;;;;;;4993355;28;20030;-85
2021/04/30 09:23:45;;;;;;;7.00;3.50;;;17.90;50.80;;;;;;5030181;28;20037;-85
2021/04/30 09:26:25;;;;;;;5.57;3.15;;;17.50;51.40;;;;;;5030180;28;20033;-85
2021/04/30 09:29:06;;;;;;;5.53;3.38;;;17.20;51.90;;;;;;5032197;28;20392;-84
2021/04/30 09:31:38;;;;;;;4.55;2.78;;;17.00;52.20;;;;;;5014895;28;20033;-85
2021/04/30 09:34:35;;;;;;;5.65;2.75;;;16.60;52.60;;;;;;5031667;28;20021;-85
2021/04/30 09:37:12;;;;;;;5.03;2.90;;;16.20;52.90;;;;;;5026866;28;20104;-85
2021/04/30 09:39:56;;;;;;;11.70;3.17;;;16.00;52.90;;;;;;5030676;28;20033;-84
2021/04/30 09:42:31;;;;;;;12.07;3.70;;;15.70;54.40;;;;;;5013642;28;20033;-84
2021/04/30 09:44:59;;;;;;;10.88;4.28;;;15.50;55.20;;;;;;5029964;28;20026;-85
2021/04/30 09:47:27;;;;;;;7.13;4.07;;;15.20;56.10;;;;;;5029550;28;20052;-83
2021/04/30 09:49:56;;;;;;;12.25;4.00;;;15.00;57.40;;;;;;5031466;28;20052;-84
2021/04/30 09:52:23;;;;;;;9.55;4.13;;;15.00;58.50;;;;;;5029086;28;20022;-83
2021/04/30 09:54:51;;;;;;;8.98;4.55;;;14.80;58.80;;;;;;5013390;28;20036;-83
2021/04/30 09:57:19;;;;;;;6.47;3.88;;;14.70;59.80;;;;;;5029560;28;20029;-83
2021/04/30 10:00:14;;;;;;;9.93;4.35;;;14.50;60.30;;;;;;5029926;28;20029;-81
2021/04/30 10:02:41;;;;;;;6.75;3.70;;;14.20;61.20;;;;;;5021829;28;20045;-82
2021/04/30 10:05:18;;;;;;;6.38;3.05;;;14.10;61.40;;;;;;5031422;28;20096;-83
2021/04/30 10:07:44;;;;;;;6.97;2.55;;;13.90;61.40;;;;;;5013148;28;20108;-84
2021/04/30 10:10:20;;;;;;;4.60;1.80;;;13.80;61.40;;;;;;5030216;28;20117;-83
2021/04/30 10:12:57;;;;;;;7.53;1.85;;;13.60;61.90;;;;;;5029277;28;20017;-84
2021/04/30 10:15:23;;;;;;;5.63;2.08;;;13.50;61.60;;;;;;5029424;28;20090;-84
2021/04/30 10:17:55;;;;;;;2.95;1.70;;;13.40;61.20;;;;;;5013758;28;20078;-83
2021/04/30 10:20:21;;;;;;;3.67;1.98;;;13.30;60.70;;;;;;5013856;28;20060;-83
2021/04/30 10:22:47;;;;;;;8.75;1.73;;;13.10;60.40;;;;;;5013311;28;20037;-82
2021/04/30 10:25:17;;;;;;;2.17;0.88;;;12.90;60.70;;;;;;5012086;28;20029;-82
2021/04/30 10:27:45;;;;;;;4.85;1.00;;;12.60;60.70;;;;;;5028673;28;20033;-83
2021/04/30 10:30:27;;;;;;;4.47;0.82;;;12.30;61.30;;;;;;5028671;28;20045;-83
2021/04/30 10:33:17;;;;;;;1.77;0.70;;;11.80;62.70;;;;;;5030334;28;20025;-82
2021/04/30 10:35:57;;;;;;;3.97;0.70;;;11.50;64.10;;;;;;5027903;28;20075;-84
2021/04/30 10:38:27;;;;;;;0.75;0.38;;;11.40;65.60;;;;;;5028637;28;20029;-82
2021/04/30 10:41:04;;;;;;;1.92;0.75;;;11.40;66.10;;;;;;5029023;28;20029;-83
2021/04/30 10:43:33;;;;;;;0.63;0.40;;;11.60;66.60;;;;;;5029078;28;20499;-84
2021/04/30 10:46:14;;;;;;;1.05;0.60;;;11.80;66.00;;;;;;5028942;28;20283;-84
2021/04/30 10:49:08;;;;;;;1.33;0.52;;;12.10;65.70;;;;;;5030220;28;20026;-83
2021/04/30 10:51:39;;;;;;;0.45;0.38;;;12.60;64.40;;;;;;5030056;28;20500;-83
2021/04/30 10:54:44;;;;;;;0.80;0.50;;;13.10;63.60;;;;;;5030021;28;20025;-82
2021/04/30 10:57:14;;;;;;;2.90;1.10;;;13.70;64.60;;;;;;4991568;28;20022;-82
2021/04/30 10:59:42;;;;;;;;;;;14.30;63.60;;;;;;5007678;28;20451;-82
2021/04/30 11:02:30;;;;;;;2.78;0.70;;;14.70;62.80;;;;;;5018708;28;19908;-82
2021/04/30 11:05:09;;;;;;;3.28;1.05;;;14.60;61.20;;;;;;5028979;28;20025;-82
2021/04/30 11:07:54;;;;;;;3.47;0.80;;;14.40;60.50;;;;;;5028277;28;20036;-77
2021/04/30 11:10:26;;;;;;;1.73;0.68;;;14.20;61.10;;;;;;5028664;28;20029;-82
2021/04/30 11:13:00;;;;;;;2.00;1.00;;;14.10;61.20;;;;;;5028509;28;20487;-82
2021/04/30 11:15:31;;;;;;;4.93;1.70;;;14.10;61.70;;;;;;5027970;28;20105;-82
2021/04/30 11:18:04;;;;;;;4.38;1.35;;;14.10;61.90;;;;;;5028689;28;20056;-83
2021/04/30 11:20:33;;;;;;;4.28;1.50;;;14.10;62.30;;;;;;5028220;28;20087;-83
2021/04/30 11:23:12;;;;;;;7.05;1.75;;;14.10;62.50;;;;;;5028900;28;20095;-84
2021/04/30 11:26:03;;;;;;;3.20;0.90;;;14.00;62.10;;;;;;5028443;28;20079;-81
2021/04/30 11:28:35;;;;;;;3.38;1.67;;;13.90;61.70;;;;;;5027875;28;20074;-82
2021/04/30 11:31:02;;;;;;;3.28;1.40;;;13.90;61.70;;;;;;5028254;28;20030;-82
2021/04/30 11:33:28;;;;;;;4.30;1.00;;;13.70;61.60;;;;;;5029037;28;20032;-84
2021/04/30 11:35:56;;;;;;;2.17;0.90;;;13.50;61.70;;;;;;5012653;28;20111;-83
2021/04/30 11:38:41;;;;;;;5.07;1.13;;;13.30;61.50;;;;;;5012151;28;20112;-82
2021/04/30 11:41:09;;;;;;;1.27;0.90;;;13.00;61.40;;;;;;5027281;28;20045;-84
2021/04/30 11:43:36;;;;;;;2.50;1.15;;;12.80;61.60;;;;;;5027854;28;20049;-84
2021/04/30 11:46:02;;;;;;;1.70;0.73;;;12.60;61.70;;;;;;5027777;28;20519;-83
2021/04/30 11:48:30;;;;;;;2.10;1.15;;;12.50;61.60;;;;;;5027876;28;20106;-82
2021/04/30 11:51:00;;;;;;;3.53;0.98;;;12.40;61.90;;;;;;5013035;28;20051;-83
2021/04/30 11:53:27;;;;;;;1.55;0.88;;;12.50;62.30;;;;;;5027327;28;20053;-83
2021/04/30 11:55:53;;;;;;;5.63;1.08;;;12.60;62.50;;;;;;5011130;28;20075;-82
2021/04/30 11:58:19;;;;;;;2.58;1.00;;;12.80;62.20;;;;;;5027464;28;20045;-83
2021/04/30 12:00:52;;;;;;;2.30;0.80;;;12.90;61.80;;;;;;5028648;28;20077;-83
2021/04/30 12:03:18;;;;;;;2.47;0.80;;;13.10;61.40;;;;;;5029181;28;20079;-83
2021/04/30 12:05:44;;;;;;;4.57;1.20;;;13.20;61.50;;;;;;5010875;28;20460;-84
2021/04/30 12:08:11;;;;;;;4.07;1.60;;;13.50;61.40;;;;;;5011100;28;20036;-83
2021/04/30 12:10:37;;;;;;;3.22;1.13;;;13.80;61.40;;;;;;5027054;28;20046;-84
2021/04/30 12:13:07;;;;;;;1.92;0.88;;;14.10;61.30;;;;;;5026684;28;20037;-83
2021/04/30 12:15:34;;;;;;;;;;;14.40;60.90;;;;;;5011614;28;20079;-83
2021/04/30 12:18:02;;;;;;;5.50;1.13;;;14.70;60.90;;;;;;5027792;28;19905;-82
2021/04/30 12:20:29;;;;;;;3.28;1.20;;;14.90;59.80;;;;;;5011723;28;20049;-83
2021/04/30 12:22:59;;;;;;;4.60;0.98;;;15.00;59.70;;;;;;5026852;28;20051;-84
2021/04/30 12:25:27;;;;;;;2.25;1.30;;;15.10;59.10;;;;;;5027463;28;20025;-84
2021/04/30 12:28:12;;;;;;;3.00;1.23;;;15.20;59.40;;;;;;5027181;28;20477;-85
2021/04/30 12:30:38;;;;;;;4.30;1.52;;;15.40;59.40;;;;;;5027406;28;20478;-85
2021/04/30 12:33:04;;;;;;;3.55;1.40;;;15.70;59.20;;;;;;5010362;28;20021;-83
2021/04/30 12:35:30;;;;;;;2.80;0.90;;;16.20;59.10;;;;;;5026938;28;20026;-83
2021/04/30 12:37:56;;;;;;;3.13;1.50;;;16.70;58.50;;;;;;5026628;28;20487;-84
2021/04/30 12:40:29;;;;;;;3.42;1.45;;;17.10;57.70;;;;;;5027106;28;20078;-84
2021/04/30 12:42:56;;;;;;;9.38;1.98;;;17.10;55.80;;;;;;5027568;28;20036;-77
2021/04/30 12:45:23;;;;;;;4.20;1.30;;;16.80;56.00;;;;;;5028572;28;20051;-83
2021/04/30 12:47:52;;;;;;;5.03;2.35;;;16.60;56.10;;;;;;5010291;28;20057;-83
2021/04/30 12:50:19;;;;;;;8.00;1.63;;;16.40;56.40;;;;;;5027687;28;20095;-84
2021/04/30 12:52:51;;;;;;;6.90;2.33;;;16.20;55.90;;;;;;5029183;28;20049;-84
2021/04/30 12:55:27;;;;;;;6.32;1.60;;;15.90;56.20;;;;;;5026357;28;20068;-82